createdAt,value
2018-11-23T00:01:07.764Z,-0.20
2018-11-23T00:03:35.973Z,-0.10
2018-11-23T00:06:04.476Z,-0.20
2018-11-23T00:08:32.689Z,-0.10
2018-11-23T00:11:00.892Z,-0.10
2018-11-23T00:13:29.125Z,-0.10
2018-11-23T00:15:57.333Z,-0.10
2018-11-23T00:18:25.621Z,-0.10
2018-11-23T00:20:53.852Z,-0.10
2018-11-23T00:23:22.062Z,-0.10
2018-11-23T00:25:50.275Z,-0.10
2018-11-23T00:28:18.577Z,-0.10
2018-11-23T00:30:46.804Z,-0.10
2018-11-23T00:33:15.008Z,-0.20
2018-11-23T00:35:43.242Z,-0.10
2018-11-23T00:38:11.452Z,-0.20
2018-11-23T00:40:39.663Z,-0.10
2018-11-23T00:43:07.888Z,-0.10
2018-11-23T00:45:42.757Z,-0.10
2018-11-23T00:48:04.321Z,-0.20
2018-11-23T00:50:32.575Z,-0.10
2018-11-23T00:53:01.020Z,-0.10
2018-11-23T00:55:29.809Z,-0.10
2018-11-23T00:57:58.092Z,-0.10
2018-11-23T01:00:31.485Z,-0.20
2018-11-23T01:03:00.682Z,-0.20
2018-11-23T01:05:28.894Z,-0.10
2018-11-23T01:07:57.116Z,-0.10
2018-11-23T01:10:26.633Z,-0.20
2018-11-23T01:12:55.727Z,-0.20
2018-11-23T01:15:24.028Z,-0.20
2018-11-23T01:17:52.257Z,-0.20
2018-11-23T01:20:21.691Z,-0.30
2018-11-23T01:22:50.368Z,-0.30
2018-11-23T01:25:19.668Z,-0.20
2018-11-23T01:27:49.072Z,-0.20
2018-11-23T01:30:20.359Z,-0.10
2018-11-23T01:32:48.665Z,-0.20
2018-11-23T01:35:16.900Z,-0.20
2018-11-23T01:37:45.138Z,-0.10
2018-11-23T01:40:16.383Z,-0.10
2018-11-23T01:42:44.991Z,-0.20
2018-11-23T01:45:13.747Z,-0.20
2018-11-23T01:47:41.964Z,-0.20
2018-11-23T01:50:12.381Z,-0.10
2018-11-23T01:52:40.616Z,-0.20
2018-11-23T01:55:09.957Z,-0.10
2018-11-23T01:57:39.368Z,-0.10
2018-11-23T02:00:09.363Z,-0.10
2018-11-23T02:02:37.576Z,-0.10
2018-11-23T02:05:06.051Z,-0.10
2018-11-23T02:07:34.270Z,-0.10
2018-11-23T02:10:02.571Z,-0.20
2018-11-23T02:12:30.887Z,-0.20
2018-11-23T02:14:59.096Z,-0.20
2018-11-23T02:17:27.311Z,-0.20
2018-11-23T02:19:56.807Z,-0.10
2018-11-23T02:22:25.773Z,-0.10
2018-11-23T02:24:53.988Z,-0.10
2018-11-23T02:27:22.698Z,-0.10
2018-11-23T02:29:50.908Z,-0.20
2018-11-23T02:32:19.123Z,-0.20
2018-11-23T02:34:47.417Z,-0.20
2018-11-23T02:37:15.640Z,-0.20
2018-11-23T02:39:43.848Z,-0.20
2018-11-23T02:42:12.066Z,-0.20
2018-11-23T02:44:40.264Z,-0.30
2018-11-23T02:47:08.484Z,-0.20
2018-11-23T02:49:36.927Z,-0.20
2018-11-23T02:52:05.213Z,-0.20
2018-11-23T02:54:33.443Z,-0.20
2018-11-23T02:57:01.857Z,-0.20
2018-11-23T02:59:30.066Z,-0.20
2018-11-23T03:01:58.270Z,-0.20
2018-11-23T03:04:26.494Z,-0.20
2018-11-23T03:06:54.709Z,-0.20
2018-11-23T03:09:22.917Z,-0.20
2018-11-23T03:11:51.147Z,-0.20
2018-11-23T03:14:19.355Z,-0.20
2018-11-23T03:16:47.576Z,-0.20
2018-11-23T03:19:15.880Z,-0.20
2018-11-23T03:21:44.104Z,-0.10
2018-11-23T03:24:12.313Z,-0.10
2018-11-23T03:26:40.525Z,-0.10
2018-11-23T03:29:08.758Z,0.00
2018-11-23T03:31:36.960Z,0.00
2018-11-23T03:34:05.573Z,0.00
2018-11-23T03:36:33.777Z,0.10
2018-11-23T03:39:01.981Z,0.10
2018-11-23T03:41:30.209Z,0.20
2018-11-23T03:43:58.415Z,0.30
2018-11-23T03:46:26.624Z,0.30
2018-11-23T03:48:54.887Z,0.30
2018-11-23T03:51:23.099Z,0.30
2018-11-23T03:53:51.306Z,0.20
2018-11-23T03:56:19.617Z,0.30
2018-11-23T03:58:47.851Z,0.30
2018-11-23T04:01:16.069Z,0.30
2018-11-23T04:03:44.323Z,0.30
2018-11-23T04:06:12.537Z,0.30
2018-11-23T04:08:40.748Z,0.30
2018-11-23T04:11:08.997Z,0.30
2018-11-23T04:13:37.209Z,0.30
2018-11-23T04:16:05.596Z,0.30
2018-11-23T04:18:33.902Z,0.40
2018-11-23T04:21:02.900Z,0.40
2018-11-23T04:23:32.384Z,0.30
2018-11-23T04:26:00.736Z,0.30
2018-11-23T04:28:29.600Z,0.30
2018-11-23T04:30:57.811Z,0.30
2018-11-23T04:33:26.665Z,0.30
2018-11-23T04:35:55.182Z,0.30
2018-11-23T04:38:23.404Z,0.30
2018-11-23T04:40:51.671Z,0.30
2018-11-23T04:43:19.892Z,0.30
2018-11-23T04:45:48.107Z,0.10
2018-11-23T04:48:16.343Z,0.20
2018-11-23T04:50:44.555Z,0.20
2018-11-23T04:53:12.782Z,0.10
2018-11-23T04:55:41.025Z,0.00
2018-11-23T04:58:09.251Z,0.00
2018-11-23T05:00:37.461Z,0.00
2018-11-23T05:03:05.948Z,0.00
2018-11-23T05:05:34.155Z,-0.10
2018-11-23T05:08:02.351Z,0.00
2018-11-23T05:10:30.660Z,0.00
2018-11-23T05:12:58.870Z,0.00
2018-11-23T05:15:27.101Z,-0.10
2018-11-23T05:17:55.347Z,-0.20
2018-11-23T05:20:23.590Z,-0.20
2018-11-23T05:22:51.829Z,-0.30
2018-11-23T05:25:21.831Z,-0.30
2018-11-23T05:27:50.045Z,-0.30
2018-11-23T05:30:19.541Z,-0.30
2018-11-23T05:32:47.810Z,-0.40
2018-11-23T05:35:16.909Z,-0.40
2018-11-23T05:37:45.176Z,-0.30
2018-11-23T05:40:15.409Z,-0.30
2018-11-23T05:42:43.737Z,-0.30
2018-11-23T05:45:14.168Z,-0.40
2018-11-23T05:47:42.437Z,-0.50
2018-11-23T05:50:14.140Z,-0.50
2018-11-23T05:52:43.138Z,-0.50
2018-11-23T05:55:11.920Z,-0.50
2018-11-23T05:57:40.505Z,-0.60
2018-11-23T06:00:12.785Z,-0.50
2018-11-23T06:02:41.067Z,-0.60
2018-11-23T06:05:09.627Z,-0.60
2018-11-23T06:07:38.600Z,-0.60
2018-11-23T06:10:09.133Z,-0.60
2018-11-23T06:12:37.334Z,-0.60
2018-11-23T06:15:07.463Z,-0.60
2018-11-23T06:17:35.671Z,-0.60
2018-11-23T06:20:04.597Z,-0.50
2018-11-23T06:22:32.922Z,-0.50
2018-11-23T06:25:01.139Z,-0.50
2018-11-23T06:27:29.343Z,-0.60
2018-11-23T06:29:57.596Z,-0.60
2018-11-23T06:32:37.193Z,-0.70
2018-11-23T06:35:06.235Z,-0.60
2018-11-23T06:37:34.451Z,-0.60
2018-11-23T06:40:02.661Z,-0.60
2018-11-23T06:42:30.888Z,-0.60
2018-11-23T06:44:59.105Z,-0.60
2018-11-23T06:47:27.308Z,-0.70
2018-11-23T06:49:55.515Z,-0.70
2018-11-23T06:52:23.756Z,-0.60
2018-11-23T06:54:51.977Z,-0.60
2018-11-23T06:57:20.200Z,-0.60
2018-11-23T06:59:48.405Z,-0.60
2018-11-23T07:02:16.649Z,-0.60
2018-11-23T07:04:44.875Z,-0.60
2018-11-23T07:07:13.103Z,-0.60
2018-11-23T07:09:41.337Z,-0.60
2018-11-23T07:12:09.620Z,-0.60
2018-11-23T07:14:37.827Z,-0.70
2018-11-23T07:17:06.047Z,-0.60
2018-11-23T07:19:34.306Z,-0.60
2018-11-23T07:22:02.512Z,-0.50
2018-11-23T07:24:30.728Z,-0.40
2018-11-23T07:26:58.995Z,-0.40
2018-11-23T07:29:27.210Z,-0.40
2018-11-23T07:31:55.421Z,-0.40
2018-11-23T07:34:23.656Z,-0.40
2018-11-23T07:36:51.873Z,-0.30
2018-11-23T07:39:31.668Z,-0.30
2018-11-23T07:42:22.568Z,-0.30
2018-11-23T07:44:50.810Z,-0.30
2018-11-23T07:47:19.079Z,-0.20
2018-11-23T07:49:47.707Z,0.00
2018-11-23T07:52:16.577Z,0.10
2018-11-23T07:54:44.800Z,0.10
2018-11-23T07:57:13.008Z,0.20
2018-11-23T07:59:41.307Z,0.10
2018-11-23T08:02:10.912Z,0.20
2018-11-23T08:04:40.005Z,0.40
2018-11-23T08:07:09.364Z,0.60
2018-11-23T08:09:37.894Z,0.80
2018-11-23T08:12:06.563Z,1.00
2018-11-23T08:14:34.909Z,1.20
2018-11-23T08:17:03.148Z,1.30
2018-11-23T08:19:31.385Z,1.40
2018-11-23T08:21:59.636Z,1.60
2018-11-23T08:24:27.829Z,1.70
2018-11-23T08:26:56.057Z,1.80
2018-11-23T08:29:24.345Z,1.80
2018-11-23T08:31:52.620Z,1.90
2018-11-23T08:34:20.839Z,2.00
2018-11-23T08:36:49.128Z,2.10
2018-11-23T08:39:17.328Z,2.10
2018-11-23T08:41:45.627Z,2.20
2018-11-23T08:44:13.844Z,2.30
2018-11-23T08:46:42.058Z,2.40
2018-11-23T08:49:10.268Z,2.40
2018-11-23T08:51:38.573Z,2.50
2018-11-23T08:54:06.785Z,2.60
2018-11-23T08:56:35.040Z,2.60
2018-11-23T08:59:03.285Z,2.60
2018-11-23T09:01:31.488Z,2.60
2018-11-23T09:03:59.701Z,2.60
2018-11-23T09:06:27.956Z,2.70
2018-11-23T09:08:56.172Z,2.70
2018-11-23T09:11:24.402Z,2.60
2018-11-23T09:13:52.621Z,2.30
2018-11-23T09:16:20.844Z,2.40
2018-11-23T09:18:49.040Z,2.60
2018-11-23T09:21:17.391Z,2.80
2018-11-23T09:23:45.594Z,2.80
2018-11-23T09:26:13.808Z,2.90
2018-11-23T09:28:42.052Z,3.00
2018-11-23T09:31:10.289Z,3.10
2018-11-23T09:33:38.487Z,3.30
2018-11-23T09:36:06.733Z,3.40
2018-11-23T09:38:34.948Z,3.60
2018-11-23T09:41:03.159Z,3.60
2018-11-23T09:43:31.904Z,3.60
2018-11-23T09:46:00.100Z,3.70
2018-11-23T09:48:28.320Z,3.70
2018-11-23T09:50:56.941Z,3.80
2018-11-23T09:53:25.182Z,3.80
2018-11-23T09:55:53.392Z,4.00
2018-11-23T09:58:21.632Z,4.20
2018-11-23T10:00:49.857Z,4.20
2018-11-23T10:03:18.092Z,4.30
2018-11-23T10:05:46.320Z,4.40
2018-11-23T10:08:14.551Z,4.40
2018-11-23T10:10:42.936Z,4.50
2018-11-23T10:13:11.308Z,4.50
2018-11-23T10:15:39.521Z,4.40
2018-11-23T10:18:07.753Z,4.50
2018-11-23T10:20:36.300Z,4.60
2018-11-23T10:23:04.592Z,4.40
2018-11-23T10:25:34.176Z,4.40
2018-11-23T10:28:02.395Z,4.60
2018-11-23T10:30:31.850Z,4.80
2018-11-23T10:33:01.359Z,4.90
2018-11-23T10:35:29.845Z,5.00
2018-11-23T10:37:59.490Z,5.10
2018-11-23T10:40:29.488Z,5.20
2018-11-23T10:42:57.738Z,5.30
2018-11-23T10:45:27.239Z,5.40
2018-11-23T10:47:56.219Z,5.40
2018-11-23T10:50:26.069Z,5.40
2018-11-23T10:52:54.288Z,5.40
2018-11-23T10:55:24.034Z,5.50
2018-11-23T10:57:52.375Z,5.60
2018-11-23T11:00:26.044Z,5.50
2018-11-23T11:03:00.284Z,5.60
2018-11-23T11:05:33.972Z,5.50
2018-11-23T11:08:03.147Z,5.60
2018-11-23T11:10:31.360Z,5.70
2018-11-23T11:12:59.593Z,5.70
2018-11-23T11:15:27.854Z,5.70
2018-11-23T11:17:56.057Z,5.80
2018-11-23T11:20:24.285Z,5.80
2018-11-23T11:22:52.684Z,5.90
2018-11-23T11:25:20.917Z,6.10
2018-11-23T11:27:49.142Z,6.10
2018-11-23T11:30:18.341Z,5.90
2018-11-23T11:32:47.206Z,5.80
2018-11-23T11:35:15.422Z,6.00
2018-11-23T11:37:44.150Z,5.90
2018-11-23T11:40:14.490Z,5.80
2018-11-23T11:42:44.625Z,5.90
2018-11-23T11:45:14.217Z,5.80
2018-11-23T11:47:43.121Z,5.80
2018-11-23T11:50:12.365Z,5.70
2018-11-23T11:52:41.818Z,5.70
2018-11-23T11:55:12.653Z,5.70
2018-11-23T11:57:41.037Z,5.70
2018-11-23T12:00:11.866Z,5.70
2018-11-23T12:02:40.247Z,5.60
2018-11-23T12:05:09.859Z,5.60
2018-11-23T12:07:38.149Z,5.60
2018-11-23T12:10:09.005Z,5.60
2018-11-23T12:12:37.472Z,5.50
2018-11-23T12:15:06.752Z,5.50
2018-11-23T12:17:34.963Z,5.50
2018-11-23T12:20:03.814Z,5.60
2018-11-23T12:22:32.044Z,5.50
2018-11-23T12:25:00.285Z,5.40
2018-11-23T12:27:29.468Z,5.40
2018-11-23T12:29:56.857Z,5.40
2018-11-23T12:32:25.076Z,5.40
2018-11-23T12:34:53.331Z,5.40
2018-11-23T12:37:21.935Z,5.40
2018-11-23T12:39:50.413Z,5.30
2018-11-23T12:42:18.641Z,5.10
2018-11-23T12:44:46.888Z,5.20
2018-11-23T12:47:15.389Z,5.10
2018-11-23T12:49:43.626Z,5.10
2018-11-23T12:52:11.881Z,5.10
2018-11-23T12:54:40.103Z,5.10
2018-11-23T12:57:08.319Z,5.10
2018-11-23T12:59:36.569Z,5.00
2018-11-23T13:02:04.801Z,5.10
2018-11-23T13:04:33.020Z,5.00
2018-11-23T13:07:01.340Z,5.00
2018-11-23T13:09:29.579Z,5.00
2018-11-23T13:11:57.806Z,5.00
2018-11-23T13:14:26.060Z,5.00
2018-11-23T13:16:54.353Z,5.00
2018-11-23T13:19:22.585Z,5.10
2018-11-23T13:21:50.947Z,5.10
2018-11-23T13:24:19.160Z,5.20
2018-11-23T13:26:47.398Z,5.20
2018-11-23T13:29:16.346Z,5.20
2018-11-23T13:31:43.886Z,5.20
2018-11-23T13:34:12.124Z,5.20
2018-11-23T13:36:40.434Z,5.20
2018-11-23T13:39:08.670Z,5.20
2018-11-23T13:41:37.200Z,5.20
2018-11-23T13:44:06.053Z,5.30
2018-11-23T13:46:34.264Z,5.30
2018-11-23T13:49:02.492Z,5.30
2018-11-23T13:51:30.805Z,5.30
2018-11-23T13:53:59.041Z,5.30
2018-11-23T13:56:27.262Z,5.30
2018-11-23T13:58:55.806Z,5.30
2018-11-23T14:01:24.033Z,5.30
2018-11-23T14:03:52.276Z,5.40
2018-11-23T14:06:20.692Z,5.40
2018-11-23T14:08:48.925Z,5.40
2018-11-23T14:11:17.155Z,5.40
2018-11-23T14:13:45.417Z,5.40
2018-11-23T14:16:13.630Z,5.40
2018-11-23T14:18:41.865Z,5.40
2018-11-23T14:21:10.104Z,5.40
2018-11-23T14:23:38.340Z,5.40
2018-11-23T14:26:06.556Z,5.30
2018-11-23T14:28:34.885Z,5.30
2018-11-23T14:31:03.122Z,5.40
2018-11-23T14:33:31.349Z,5.40
2018-11-23T14:35:59.658Z,5.30
2018-11-23T14:38:28.155Z,5.30
2018-11-23T14:40:56.439Z,5.20
2018-11-23T14:43:24.666Z,5.20
2018-11-23T14:45:52.887Z,5.20
2018-11-23T14:48:21.097Z,5.20
2018-11-23T14:50:50.553Z,5.10
2018-11-23T14:53:18.770Z,4.90
2018-11-23T14:55:47.004Z,4.90
2018-11-23T14:58:15.316Z,4.80
2018-11-23T15:00:43.552Z,4.80
2018-11-23T15:03:11.803Z,4.70
2018-11-23T15:05:40.076Z,4.70
2018-11-23T15:08:08.524Z,4.70
2018-11-23T15:10:36.955Z,4.60
2018-11-23T15:13:06.565Z,4.60
2018-11-23T15:15:36.085Z,4.50
2018-11-23T15:18:04.385Z,4.40
2018-11-23T15:20:36.035Z,4.50
2018-11-23T15:23:08.235Z,4.40
2018-11-23T15:25:36.520Z,4.40
2018-11-23T15:28:05.518Z,4.30
2018-11-23T15:30:34.937Z,4.20
2018-11-23T15:33:03.725Z,4.30
2018-11-23T15:35:33.348Z,4.20
2018-11-23T15:38:01.680Z,4.20
2018-11-23T15:40:30.727Z,4.20
2018-11-23T15:43:00.525Z,4.20
2018-11-23T15:45:29.840Z,4.20
2018-11-23T15:47:58.713Z,4.10
2018-11-23T15:50:28.629Z,4.10
2018-11-23T15:52:56.881Z,3.90
2018-11-23T15:55:27.024Z,3.90
2018-11-23T15:57:56.872Z,3.90
2018-11-23T16:00:28.794Z,3.90
2018-11-23T16:02:57.031Z,3.70
2018-11-23T16:05:25.366Z,3.70
2018-11-23T16:07:56.077Z,3.70
2018-11-23T16:10:25.576Z,3.70
2018-11-23T16:12:55.087Z,3.60
2018-11-23T16:15:23.881Z,3.70
2018-11-23T16:17:52.848Z,3.70
2018-11-23T16:20:23.191Z,3.80
2018-11-23T16:22:52.848Z,3.80
2018-11-23T16:25:21.092Z,3.70
2018-11-23T16:27:50.972Z,3.70
2018-11-23T16:30:21.985Z,3.60
2018-11-23T16:32:51.333Z,3.60
2018-11-23T16:35:21.145Z,3.70
2018-11-23T16:37:49.735Z,3.70
2018-11-23T16:40:19.400Z,3.70
2018-11-23T16:42:47.704Z,3.80
2018-11-23T16:45:19.717Z,3.70
2018-11-23T16:47:48.461Z,3.70
2018-11-23T16:50:16.691Z,3.70
2018-11-23T16:52:46.460Z,3.80
2018-11-23T16:55:15.740Z,3.70
2018-11-23T16:57:45.556Z,3.70
2018-11-23T17:00:16.846Z,3.80
2018-11-23T17:02:45.172Z,3.80
2018-11-23T17:05:14.686Z,3.80
2018-11-23T17:07:42.998Z,3.70
2018-11-23T17:10:12.675Z,3.70
2018-11-23T17:12:41.240Z,3.60
2018-11-23T17:15:12.117Z,3.70
2018-11-23T17:17:40.328Z,3.60
2018-11-23T17:20:11.084Z,3.60
2018-11-23T17:22:39.485Z,3.70
2018-11-23T17:25:08.905Z,3.70
2018-11-23T17:27:37.128Z,3.60
2018-11-23T17:30:06.988Z,3.60
2018-11-23T17:32:35.208Z,3.70
2018-11-23T17:35:03.461Z,3.70
2018-11-23T17:37:31.770Z,3.70
2018-11-23T17:39:59.992Z,3.70
2018-11-23T17:42:28.209Z,3.80
2018-11-23T17:44:56.537Z,3.80
2018-11-23T17:47:24.765Z,3.80
2018-11-23T17:49:52.981Z,3.70
2018-11-23T17:52:21.208Z,3.70
2018-11-23T17:54:49.444Z,3.70
2018-11-23T17:57:17.641Z,3.70
2018-11-23T17:59:47.000Z,3.70
2018-11-23T18:02:17.296Z,3.60
2018-11-23T18:04:45.504Z,3.60
2018-11-23T18:07:14.172Z,3.60
2018-11-23T18:09:42.833Z,3.70
2018-11-23T18:12:11.047Z,3.60
2018-11-23T18:14:39.373Z,3.60
2018-11-23T18:17:07.596Z,3.60
2018-11-23T18:19:35.809Z,3.60
2018-11-23T18:22:04.100Z,3.60
2018-11-23T18:24:32.333Z,3.60
2018-11-23T18:27:00.610Z,3.60
2018-11-23T18:29:28.892Z,3.60
2018-11-23T18:31:57.095Z,3.70
2018-11-23T18:34:25.303Z,3.60
2018-11-23T18:36:53.545Z,3.60
2018-11-23T18:39:21.754Z,3.60
2018-11-23T18:41:49.957Z,3.70
2018-11-23T18:44:18.181Z,3.60
2018-11-23T18:46:46.388Z,3.60
2018-11-23T18:49:14.592Z,3.60
2018-11-23T18:51:42.815Z,3.60
2018-11-23T18:54:11.011Z,3.60
2018-11-23T18:56:39.244Z,3.60
2018-11-23T18:59:07.497Z,3.60
2018-11-23T19:01:35.712Z,3.70
2018-11-23T19:04:03.928Z,3.60
2018-11-23T19:06:32.176Z,3.60
2018-11-23T19:09:00.396Z,3.60
2018-11-23T19:11:28.605Z,3.60
2018-11-23T19:13:56.836Z,3.80
2018-11-23T19:16:25.132Z,3.70
2018-11-23T19:18:53.338Z,3.60
2018-11-23T19:21:21.869Z,3.60
2018-11-23T19:23:50.128Z,3.70
2018-11-23T19:26:18.325Z,3.70
2018-11-23T19:28:46.589Z,3.70
2018-11-23T19:31:14.788Z,3.60
2018-11-23T19:33:42.996Z,3.60
2018-11-23T19:36:12.357Z,3.60
2018-11-23T19:38:40.630Z,3.50
2018-11-23T19:41:08.844Z,3.50
2018-11-23T19:43:37.052Z,3.50
2018-11-23T19:46:05.760Z,3.50
2018-11-23T19:48:33.983Z,3.60
2018-11-23T19:51:02.877Z,3.60
2018-11-23T19:53:31.098Z,3.60
2018-11-23T19:55:59.348Z,3.60
2018-11-23T19:58:27.565Z,3.70
2018-11-23T20:00:55.777Z,3.80
2018-11-23T20:03:24.577Z,3.70
2018-11-23T20:05:52.808Z,3.80
2018-11-23T20:08:21.015Z,3.80
2018-11-23T20:10:49.224Z,3.80
2018-11-23T20:13:17.482Z,3.80
2018-11-23T20:15:45.695Z,3.80
2018-11-23T20:18:13.908Z,3.80
2018-11-23T20:20:42.224Z,3.80
2018-11-23T20:23:10.524Z,3.70
2018-11-23T20:25:38.676Z,3.70
2018-11-23T20:28:06.901Z,3.60
2018-11-23T20:30:38.270Z,3.70
2018-11-23T20:33:03.523Z,3.80
2018-11-23T20:35:31.733Z,3.70
2018-11-23T20:37:59.999Z,3.80
2018-11-23T20:40:28.316Z,3.80
2018-11-23T20:42:56.541Z,3.90
2018-11-23T20:45:24.747Z,3.80
2018-11-23T20:47:53.040Z,3.80
2018-11-23T20:50:21.293Z,3.80
2018-11-23T20:52:49.503Z,3.80
2018-11-23T20:55:20.659Z,3.80
2018-11-23T20:57:48.913Z,3.80
2018-11-23T21:00:18.065Z,3.90
2018-11-23T21:02:47.345Z,3.80
2018-11-23T21:05:16.757Z,3.80
2018-11-23T21:07:44.971Z,3.80
2018-11-23T21:10:20.361Z,3.90
2018-11-23T21:12:43.533Z,3.90
2018-11-23T21:15:23.049Z,3.80
2018-11-23T21:17:51.315Z,3.90
2018-11-23T21:20:19.536Z,3.80
2018-11-23T21:22:47.755Z,3.70
2018-11-23T21:25:16.028Z,3.70
2018-11-23T21:27:44.254Z,3.80
2018-11-23T21:30:18.462Z,3.80
2018-11-23T21:32:46.712Z,3.80
2018-11-23T21:35:14.938Z,3.80
2018-11-23T21:37:43.167Z,3.80
2018-11-23T21:40:14.161Z,3.80
2018-11-23T21:42:42.364Z,3.90
2018-11-23T21:45:12.810Z,3.90
2018-11-23T21:47:41.045Z,3.90
2018-11-23T21:50:12.252Z,3.90
2018-11-23T21:52:40.580Z,3.80
2018-11-23T21:55:10.317Z,3.80
2018-11-23T21:57:38.668Z,3.90
2018-11-23T22:00:08.818Z,3.90
2018-11-23T22:02:37.020Z,3.90
2018-11-23T22:05:05.976Z,3.90
2018-11-23T22:07:34.257Z,4.00
2018-11-23T22:10:02.532Z,3.90
2018-11-23T22:12:30.745Z,3.90
2018-11-23T22:14:59.329Z,3.90
2018-11-23T22:17:27.723Z,3.90
2018-11-23T22:19:55.932Z,3.90
2018-11-23T22:22:24.245Z,3.90
2018-11-23T22:24:52.469Z,3.90
2018-11-23T22:27:20.671Z,3.90
2018-11-23T22:29:48.978Z,3.80
2018-11-23T22:32:17.188Z,3.80
2018-11-23T22:34:45.400Z,3.80
2018-11-23T22:37:13.627Z,3.80
2018-11-23T22:39:41.844Z,3.80
2018-11-23T22:42:10.075Z,3.80
2018-11-23T22:44:38.308Z,3.80
2018-11-23T22:47:06.529Z,3.80
2018-11-23T22:49:34.762Z,3.80
2018-11-23T22:52:02.989Z,3.80
2018-11-23T22:54:31.209Z,3.90
2018-11-23T22:56:59.411Z,3.90
2018-11-23T22:59:27.650Z,3.90
2018-11-23T23:01:55.964Z,3.90
2018-11-23T23:04:24.175Z,3.90
2018-11-23T23:06:52.472Z,3.80
2018-11-23T23:09:20.675Z,3.70
2018-11-23T23:11:48.885Z,3.80
2018-11-23T23:14:17.194Z,3.90
2018-11-23T23:16:45.408Z,3.90
2018-11-23T23:19:13.631Z,3.80
2018-11-23T23:21:41.929Z,3.80
2018-11-23T23:24:11.828Z,3.90
2018-11-23T23:26:38.396Z,3.90
2018-11-23T23:29:06.649Z,3.90
2018-11-23T23:31:34.996Z,3.90
2018-11-23T23:34:03.242Z,3.80
2018-11-23T23:36:31.488Z,3.90
2018-11-23T23:38:59.704Z,3.80
2018-11-23T23:41:27.936Z,3.80
2018-11-23T23:43:56.166Z,3.80
2018-11-23T23:46:24.412Z,3.80
2018-11-23T23:48:52.654Z,3.80
2018-11-23T23:51:20.888Z,3.90
2018-11-23T23:53:49.105Z,3.90
2018-11-23T23:56:17.308Z,3.90
2018-11-23T23:58:45.612Z,3.90
